Time;durP1;ratioP1;P1;durP2;ratioP2;P2;SDS_P1;SDS_P2;PMS_P1;PMS_P2;Temp;Humidity;BMP_temperature;BMP_pressure;BME280_temperature;BME280_humidity;BME280_pressure;Samples;Min_cycle;Max_cycle;Signal;HPM_P1;HPM_P2
2021/04/25 00:01:24;;;;;;;21.57;12.43;;;4.50;99.90;;;;;;4222170;28;20803;-62
2021/04/25 00:03:25;;;;;;;22.97;12.33;;;4.40;99.90;;;;;;4222932;28;20325;-62
2021/04/25 00:05:26;;;;;;;19.30;11.73;;;4.40;99.90;;;;;;4222269;28;20696;-62
2021/04/25 00:07:27;;;;;;;23.77;12.23;;;4.40;99.90;;;;;;4222844;28;20256;-62
2021/04/25 00:09:28;;;;;;;25.73;14.13;;;4.40;99.90;;;;;;4222993;28;20762;-63
2021/04/25 00:11:29;;;;;;;21.73;10.50;;;4.40;99.90;;;;;;4221945;28;20268;-63
2021/04/25 00:13:30;;;;;;;19.97;10.67;;;4.50;99.90;;;;;;4222999;28;20248;-65
2021/04/25 00:15:31;;;;;;;13.97;7.80;;;4.50;99.90;;;;;;4221761;28;20781;-72
2021/04/25 00:17:33;;;;;;;18.03;7.70;;;4.50;99.90;;;;;;4235954;27;20271;-64
2021/04/25 00:19:35;;;;;;;18.37;8.20;;;4.50;99.90;;;;;;4237564;27;20272;-62
2021/04/25 00:21:36;;;;;;;15.67;7.67;;;4.50;99.90;;;;;;4238678;27;20291;-63
2021/04/25 00:23:38;;;;;;;13.73;6.70;;;4.40;99.90;;;;;;4239162;27;20332;-65
2021/04/25 00:25:39;;;;;;;12.40;6.87;;;4.40;99.90;;;;;;4238351;27;20320;-67
2021/04/25 00:27:40;;;;;;;14.43;6.53;;;4.50;99.90;;;;;;4239455;27;20348;-63
2021/04/25 00:29:41;;;;;;;11.67;6.33;;;4.50;99.90;;;;;;4239372;27;20351;-63
2021/04/25 00:31:42;;;;;;;10.73;6.40;;;4.50;99.90;;;;;;4239483;27;20283;-63
2021/04/25 00:33:44;;;;;;;15.83;7.53;;;4.50;99.90;;;;;;4239473;27;20332;-62
2021/04/25 00:35:45;;;;;;;16.37;8.43;;;4.50;99.90;;;;;;4239274;27;20259;-62
2021/04/25 00:37:46;;;;;;;17.83;7.03;;;4.40;99.90;;;;;;4238338;28;20268;-62
2021/04/25 00:39:47;;;;;;;15.60;7.43;;;4.40;99.90;;;;;;4239552;28;20311;-67
2021/04/25 00:41:48;;;;;;;16.37;6.90;;;4.40;99.90;;;;;;4238943;28;20323;-67
2021/04/25 00:43:50;;;;;;;13.70;6.57;;;4.40;99.90;;;;;;4239699;27;20331;-67
2021/04/25 00:45:51;;;;;;;13.47;6.37;;;4.40;99.90;;;;;;4238369;28;20820;-68
2021/04/25 00:47:52;;;;;;;13.07;6.67;;;4.40;99.90;;;;;;4238997;27;20316;-65
2021/04/25 00:49:53;;;;;;;10.73;6.70;;;4.40;99.90;;;;;;4221514;28;20276;-64
2021/04/25 00:51:54;;;;;;;13.70;6.73;;;4.40;99.90;;;;;;4222843;28;20369;-62
2021/04/25 00:53:56;;;;;;;14.17;7.77;;;4.40;99.90;;;;;;4220614;28;20329;-69
2021/04/25 00:55:57;;;;;;;12.47;7.50;;;4.40;99.90;;;;;;4223450;28;20359;-63
2021/04/25 00:58:00;;;;;;;17.40;7.87;;;4.40;99.90;;;;;;4221890;28;20348;-69
2021/04/25 01:00:06;;;;;;;20.70;7.17;;;4.50;99.90;;;;;;4222733;28;20324;-63
2021/04/25 01:02:08;;;;;;;14.57;7.03;;;4.50;99.90;;;;;;4221824;28;20364;-65
2021/04/25 01:04:09;;;;;;;12.00;6.20;;;4.50;99.90;;;;;;4222001;28;20581;-65
2021/04/25 01:06:11;;;;;;;13.93;6.10;;;4.50;99.90;;;;;;4221932;28;20280;-63
2021/04/25 01:08:12;;;;;;;12.50;6.37;;;4.60;99.90;;;;;;4223529;28;20321;-64
2021/04/25 01:10:14;;;;;;;12.97;7.20;;;4.60;99.90;;;;;;4221934;28;20321;-61
2021/04/25 01:12:15;;;;;;;14.40;6.33;;;4.70;99.90;;;;;;4222063;28;20321;-65
2021/04/25 01:14:16;;;;;;;11.37;6.53;;;4.70;99.90;;;;;;4221937;28;20333;-65
2021/04/25 01:16:19;;;;;;;10.80;5.87;;;4.70;99.90;;;;;;4221979;28;20276;-63
2021/04/25 01:18:20;;;;;;;11.43;6.47;;;4.70;99.90;;;;;;4226010;28;20249;-63
2021/04/25 01:20:22;;;;;;;12.37;6.83;;;4.80;99.90;;;;;;4223616;28;20272;-65
2021/04/25 01:22:23;;;;;;;13.27;7.37;;;4.80;99.90;;;;;;4226006;28;20341;-66
2021/04/25 01:24:24;;;;;;;17.63;7.33;;;4.80;99.90;;;;;;4223798;28;20269;-65
2021/04/25 01:26:26;;;;;;;13.97;6.40;;;4.80;99.90;;;;;;4225563;28;20268;-63
2021/04/25 01:28:27;;;;;;;11.60;6.17;;;4.80;99.90;;;;;;4224851;28;21174;-66
2021/04/25 01:30:31;;;;;;;9.97;5.37;;;4.80;99.90;;;;;;4225583;28;20272;-62
2021/04/25 01:32:32;;;;;;;10.97;5.87;;;4.80;99.90;;;;;;4225540;27;20268;-62
2021/04/25 01:34:33;;;;;;;14.13;6.07;;;4.80;99.90;;;;;;4225311;28;21092;-65
2021/04/25 01:36:34;;;;;;;11.03;4.80;;;4.80;99.90;;;;;;4224382;28;20779;-62
2021/04/25 01:38:36;;;;;;;11.30;5.43;;;4.80;99.90;;;;;;4225345;27;20275;-62
2021/04/25 01:40:37;;;;;;;7.93;5.40;;;4.80;99.90;;;;;;4224448;28;20372;-64
2021/04/25 01:42:38;;;;;;;10.50;5.60;;;4.80;99.90;;;;;;4223111;28;20341;-62
2021/04/25 01:44:39;;;;;;;9.70;6.33;;;4.80;99.90;;;;;;4224863;28;20301;-62
2021/04/25 01:46:40;;;;;;;13.00;6.00;;;4.80;99.90;;;;;;4224834;28;20828;-62
2021/04/25 01:48:42;;;;;;;9.87;5.37;;;4.80;99.90;;;;;;4225034;28;20338;-64
2021/04/25 01:50:44;;;;;;;11.83;5.70;;;4.80;99.90;;;;;;4224212;28;20288;-67
2021/04/25 01:52:45;;;;;;;9.97;5.00;;;4.80;99.90;;;;;;4230739;27;20809;-63
2021/04/25 01:54:47;;;;;;;11.60;5.37;;;4.80;99.90;;;;;;4241490;27;20264;-63
2021/04/25 01:56:48;;;;;;;11.23;6.20;;;4.80;99.90;;;;;;4242343;27;20740;-68
2021/04/25 01:58:49;;;;;;;11.90;5.17;;;4.80;99.90;;;;;;4241010;27;20331;-62
2021/04/25 02:00:50;;;;;;;10.93;5.53;;;4.80;99.90;;;;;;4241887;27;20291;-62
2021/04/25 02:02:54;;;;;;;9.57;5.40;;;4.90;99.90;;;;;;4240860;27;20328;-62
2021/04/25 02:04:55;;;;;;;9.43;5.13;;;4.80;99.90;;;;;;4241707;27;20276;-64
2021/04/25 02:06:56;;;;;;;14.97;6.07;;;4.90;99.90;;;;;;4241206;27;20727;-62
2021/04/25 02:08:57;;;;;;;12.13;5.87;;;4.90;99.90;;;;;;4242175;27;20347;-65
2021/04/25 02:10:58;;;;;;;12.53;5.90;;;4.80;99.90;;;;;;4236735;27;20326;-66
2021/04/25 02:12:59;;;;;;;13.00;6.03;;;4.90;99.90;;;;;;4223531;28;21228;-63
2021/04/25 02:15:00;;;;;;;11.73;5.40;;;4.90;99.90;;;;;;4224555;28;20272;-63
2021/04/25 02:17:02;;;;;;;10.73;5.40;;;4.80;99.90;;;;;;4224616;28;20337;-65
2021/04/25 02:19:04;;;;;;;11.27;6.40;;;4.80;99.90;;;;;;4224585;28;20260;-62
2021/04/25 02:21:05;;;;;;;13.80;5.93;;;4.80;99.90;;;;;;4223903;28;20828;-64
2021/04/25 02:23:06;;;;;;;9.97;6.27;;;4.80;99.90;;;;;;4232403;27;20339;-63
2021/04/25 02:25:09;;;;;;;13.00;5.90;;;4.80;99.90;;;;;;4240292;27;20308;-61
2021/04/25 02:27:11;;;;;;;16.67;6.60;;;4.80;99.90;;;;;;4241657;27;20268;-62
2021/04/25 02:29:12;;;;;;;9.30;5.00;;;4.80;99.90;;;;;;4240504;27;20384;-61
2021/04/25 02:31:13;;;;;;;9.67;5.30;;;4.80;99.90;;;;;;4241559;27;20316;-63
2021/04/25 02:33:14;;;;;;;10.07;5.20;;;4.80;99.90;;;;;;4229491;27;20329;-62
2021/04/25 02:35:17;;;;;;;9.23;4.57;;;4.80;99.90;;;;;;4223880;28;20268;-59
2021/04/25 02:37:18;;;;;;;9.77;4.30;;;4.80;99.90;;;;;;4223351;28;20276;-71
2021/04/25 02:39:19;;;;;;;6.10;4.07;;;4.80;99.90;;;;;;4224118;28;20260;-64
2021/04/25 02:41:20;;;;;;;7.43;4.07;;;4.80;99.90;;;;;;4223648;28;20341;-65
2021/04/25 02:43:21;;;;;;;10.90;4.77;;;4.70;99.90;;;;;;4223972;28;20329;-62
2021/04/25 02:45:25;;;;;;;11.77;4.20;;;4.70;99.90;;;;;;4223960;28;20264;-67
2021/04/25 02:47:26;;;;;;;8.43;4.30;;;4.70;99.90;;;;;;4223678;28;20337;-63
2021/04/25 02:49:27;;;;;;;10.23;4.33;;;4.70;99.90;;;;;;4223762;28;20365;-61
2021/04/25 02:51:28;;;;;;;9.03;4.57;;;4.60;99.90;;;;;;4224147;27;20852;-70
2021/04/25 02:53:33;;;;;;;8.57;4.07;;;4.60;99.90;;;;;;4224078;28;20308;-69
2021/04/25 02:55:36;;;;;;;8.03;4.37;;;4.60;99.90;;;;;;4223106;28;20658;-62
2021/04/25 02:57:38;;;;;;;8.50;4.37;;;4.50;99.90;;;;;;4224489;28;20666;-64
2021/04/25 02:59:41;;;;;;;8.60;4.07;;;4.50;99.90;;;;;;4223493;28;20264;-62
2021/04/25 03:01:42;;;;;;;7.70;4.57;;;4.50;99.90;;;;;;4224388;28;20336;-67
2021/04/25 03:03:43;;;;;;;8.77;4.20;;;4.50;99.90;;;;;;4222702;28;21211;-62
2021/04/25 03:05:44;;;;;;;10.27;4.80;;;4.50;99.90;;;;;;4235933;27;20669;-62
2021/04/25 03:07:45;;;;;;;9.87;4.53;;;4.40;99.90;;;;;;4240610;27;20268;-61
2021/04/25 03:09:47;;;;;;;11.77;5.27;;;4.40;99.90;;;;;;4239459;27;20276;-63
2021/04/25 03:11:48;;;;;;;6.43;3.80;;;4.40;99.90;;;;;;4239917;27;20807;-65
2021/04/25 03:13:49;;;;;;;11.03;4.93;;;4.40;99.90;;;;;;4238674;27;21172;-67
2021/04/25 03:15:50;;;;;;;8.80;3.90;;;4.40;99.90;;;;;;4240133;27;20267;-64
2021/04/25 03:17:51;;;;;;;9.10;3.93;;;4.40;99.90;;;;;;4240415;27;20756;-72
2021/04/25 03:19:52;;;;;;;8.77;4.50;;;4.40;99.90;;;;;;4240635;27;20268;-67
2021/04/25 03:21:53;;;;;;;13.80;4.83;;;4.50;99.90;;;;;;4240018;27;20320;-62
2021/04/25 03:23:55;;;;;;;11.10;4.20;;;4.40;99.90;;;;;;4239843;27;20275;-68
2021/04/25 03:25:56;;;;;;;8.70;4.33;;;4.40;99.90;;;;;;4239041;27;20328;-60
2021/04/25 03:27:57;;;;;;;23.47;4.67;;;4.50;99.90;;;;;;4240946;27;20328;-71
2021/04/25 03:29:58;;;;;;;8.53;4.20;;;4.40;99.90;;;;;;4238220;27;20730;-64
2021/04/25 03:31:59;;;;;;;9.37;3.53;;;4.50;99.90;;;;;;4223877;27;20644;-65
2021/04/25 03:34:00;;;;;;;8.63;4.30;;;4.50;99.90;;;;;;4222289;28;20289;-67
2021/04/25 03:36:02;;;;;;;6.83;3.83;;;4.50;99.90;;;;;;4223145;28;20260;-66
2021/04/25 03:38:03;;;;;;;6.10;3.90;;;4.40;99.90;;;;;;4223362;28;20260;-67
2021/04/25 03:40:06;;;;;;;9.17;3.97;;;4.40;99.90;;;;;;4222515;28;20260;-63
2021/04/25 03:42:07;;;;;;;8.40;4.73;;;4.50;99.90;;;;;;4222452;28;20321;-64
2021/04/25 03:44:09;;;;;;;12.77;4.70;;;4.50;99.90;;;;;;4222964;28;20256;-64
2021/04/25 03:46:11;;;;;;;5.63;3.40;;;4.50;99.90;;;;;;4223148;28;20353;-61
2021/04/25 03:48:12;;;;;;;8.73;3.90;;;4.50;99.90;;;;;;4222458;28;20276;-63
2021/04/25 03:50:15;;;;;;;9.43;3.90;;;4.50;99.90;;;;;;4222872;28;20959;-67
2021/04/25 03:52:16;;;;;;;7.77;4.07;;;4.60;99.90;;;;;;4222760;28;20638;-69
2021/04/25 03:54:18;;;;;;;11.67;3.93;;;4.60;99.90;;;;;;4224181;27;20264;-64
2021/04/25 03:56:19;;;;;;;8.83;3.70;;;4.60;99.90;;;;;;4223222;27;20268;-66
2021/04/25 03:58:20;;;;;;;7.43;3.77;;;4.70;99.90;;;;;;4239688;27;20332;-65
2021/04/25 04:00:22;;;;;;;8.70;4.93;;;4.70;99.90;;;;;;4234894;27;20324;-65
2021/04/25 04:02:23;;;;;;;6.80;4.63;;;4.80;99.90;;;;;;4239599;27;20352;-62
2021/04/25 04:04:24;;;;;;;6.77;3.70;;;4.80;99.90;;;;;;4237009;27;20846;-65
2021/04/25 04:06:25;;;;;;;7.97;4.30;;;4.80;99.90;;;;;;4222740;28;20276;-69
2021/04/25 04:08:26;;;;;;;10.50;3.60;;;4.90;99.90;;;;;;4222488;28;20275;-61
2021/04/25 04:10:27;;;;;;;9.23;3.90;;;5.00;99.90;;;;;;4223042;28;20321;-61
2021/04/25 04:12:28;;;;;;;7.73;3.73;;;5.10;99.90;;;;;;4222420;28;20674;-64
2021/04/25 04:14:29;;;;;;;7.73;3.87;;;5.20;99.90;;;;;;4223803;27;20276;-65
2021/04/25 04:16:30;;;;;;;7.43;3.73;;;5.30;99.90;;;;;;4233354;27;20279;-69
2021/04/25 04:18:32;;;;;;;7.73;3.63;;;5.40;99.90;;;;;;4239578;27;20263;-62
2021/04/25 04:20:33;;;;;;;9.97;4.10;;;5.60;99.90;;;;;;4239627;27;20350;-65
2021/04/25 04:22:34;;;;;;;9.17;4.43;;;5.70;99.90;;;;;;4238701;27;20692;-67
2021/04/25 04:24:36;;;;;;;9.27;3.93;;;5.80;99.90;;;;;;4239319;27;20267;-63
2021/04/25 04:26:38;;;;;;;8.73;4.50;;;6.10;99.90;;;;;;4238967;27;20324;-61
2021/04/25 04:28:39;;;;;;;10.13;4.13;;;6.20;99.90;;;;;;4239399;27;20252;-71
2021/04/25 04:30:40;;;;;;;12.60;4.90;;;6.30;99.90;;;;;;4238859;27;20263;-64
2021/04/25 04:32:42;;;;;;;8.03;4.23;;;6.70;99.90;;;;;;4238205;27;20796;-62
2021/04/25 04:34:43;;;;;;;7.27;4.57;;;7.20;99.90;;;;;;4237004;27;20267;-63
2021/04/25 04:36:44;;;;;;;8.33;4.57;;;7.80;99.70;;;;;;4240035;27;20300;-66
2021/04/25 04:38:45;;;;;;;11.77;5.73;;;8.50;98.40;;;;;;4239062;28;20799;-63
2021/04/25 04:40:46;;;;;;;17.40;7.00;;;9.00;97.00;;;;;;4238994;28;20271;-64
2021/04/25 04:42:48;;;;;;;21.17;7.60;;;9.40;96.10;;;;;;4238433;27;20055;-63
2021/04/25 04:44:49;;;;;;;17.17;7.30;;;9.60;94.90;;;;;;4239531;27;20776;-64
2021/04/25 04:46:51;;;;;;;20.33;8.57;;;9.30;94.90;;;;;;4239089;28;20024;-63
2021/04/25 04:48:52;;;;;;;17.30;7.13;;;9.20;95.20;;;;;;4239083;27;20481;-64
2021/04/25 04:50:53;;;;;;;14.73;7.10;;;9.20;95.60;;;;;;4228882;27;20104;-63
2021/04/25 04:52:54;;;;;;;17.90;8.33;;;9.20;95.40;;;;;;4225207;28;20838;-74
2021/04/25 04:54:57;;;;;;;12.97;7.57;;;9.70;95.00;;;;;;4224430;28;20089;-73
2021/04/25 04:56:58;;;;;;;15.90;8.47;;;10.10;93.70;;;;;;4225078;28;20020;-63
2021/04/25 04:58:59;;;;;;;17.23;8.70;;;10.30;92.90;;;;;;4225769;28;20031;-63
2021/04/25 05:01:01;;;;;;;14.40;7.97;;;10.50;92.10;;;;;;4225114;28;20024;-62
2021/04/25 05:03:02;;;;;;;16.33;8.97;;;10.70;91.30;;;;;;4225338;27;20921;-61
2021/04/25 05:05:06;;;;;;;14.53;8.23;;;10.70;91.10;;;;;;4241847;27;20441;-61
2021/04/25 05:07:07;;;;;;;14.77;8.63;;;10.50;91.10;;;;;;4242290;27;20035;-65
2021/04/25 05:09:08;;;;;;;16.43;7.90;;;10.60;90.80;;;;;;4242241;27;21036;-74
2021/04/25 05:11:10;;;;;;;20.40;9.50;;;10.60;90.40;;;;;;4242581;27;20035;-73
2021/04/25 05:13:11;;;;;;;17.17;9.73;;;10.40;90.00;;;;;;4236951;27;20061;-71
2021/04/25 05:15:12;;;;;;;16.13;9.13;;;10.30;90.00;;;;;;4225586;28;20725;-64
2021/04/25 05:17:13;;;;;;;17.27;9.97;;;10.20;90.10;;;;;;4225096;28;20028;-62
2021/04/25 05:19:14;;;;;;;14.77;9.23;;;10.30;90.10;;;;;;4225062;28;20028;-64
2021/04/25 05:21:16;;;;;;;18.40;8.47;;;10.40;89.80;;;;;;4224750;28;20078;-62
2021/04/25 05:23:17;;;;;;;19.67;9.20;;;10.40;89.10;;;;;;4224683;28;20027;-70
2021/04/25 05:25:18;;;;;;;15.30;8.40;;;10.50;89.40;;;;;;4224574;28;20085;-67
2021/04/25 05:27:19;;;;;;;16.50;9.17;;;10.50;89.00;;;;;;4224123;28;20027;-70
2021/04/25 05:29:21;;;;;;;19.57;9.77;;;10.70;87.60;;;;;;4224626;28;20043;-63
2021/04/25 05:31:22;;;;;;;16.43;9.97;;;10.80;86.40;;;;;;4223468;28;20051;-63
2021/04/25 05:33:23;;;;;;;20.83;9.23;;;11.00;85.30;;;;;;4224402;28;20031;-62
2021/04/25 05:35:24;;;;;;;19.80;8.83;;;11.10;84.10;;;;;;4223652;28;20543;-63
2021/04/25 05:37:25;;;;;;;20.50;8.00;;;11.10;83.20;;;;;;4224589;28;20821;-68
2021/04/25 05:39:26;;;;;;;19.57;7.93;;;10.90;83.30;;;;;;4223928;28;20069;-71
2021/04/25 05:41:27;;;;;;;17.03;8.20;;;11.40;82.50;;;;;;4239402;27;20039;-71
2021/04/25 05:43:29;;;;;;;22.77;8.90;;;11.60;80.40;;;;;;4240534;27;20498;-71
2021/04/25 05:45:30;;;;;;;32.60;10.13;;;11.90;79.30;;;;;;4241376;27;20100;-72
2021/04/25 05:47:31;;;;;;;20.87;9.30;;;12.30;77.60;;;;;;4240760;27;20096;-64
2021/04/25 05:49:32;;;;;;;18.47;8.40;;;12.90;76.10;;;;;;4240311;27;20023;-62
2021/04/25 05:51:33;;;;;;;16.63;8.43;;;12.90;74.10;;;;;;4240493;27;20052;-62
2021/04/25 05:53:34;;;;;;;22.23;7.80;;;13.10;73.60;;;;;;4239237;27;20076;-62
2021/04/25 05:55:35;;;;;;;18.40;7.63;;;13.50;71.70;;;;;;4240918;27;20083;-64
2021/04/25 05:57:37;;;;;;;17.57;7.63;;;13.50;70.00;;;;;;4240947;27;20508;-65
2021/04/25 05:59:38;;;;;;;14.57;7.17;;;13.40;69.50;;;;;;4240945;27;20043;-69
2021/04/25 06:01:40;;;;;;;22.03;7.90;;;13.80;68.30;;;;;;4239981;27;20084;-68
2021/04/25 06:03:41;;;;;;;15.67;6.97;;;14.10;67.80;;;;;;4228672;27;20100;-71
2021/04/25 06:05:42;;;;;;;15.90;7.53;;;14.30;65.80;;;;;;4222656;28;20035;-71
2021/04/25 06:07:43;;;;;;;11.10;6.37;;;14.60;64.80;;;;;;4224364;27;20047;-70
2021/04/25 06:09:45;;;;;;;15.47;6.80;;;14.70;63.40;;;;;;4223697;28;20088;-65
2021/04/25 06:11:47;;;;;;;14.27;6.10;;;14.70;63.00;;;;;;4223863;28;20076;-67
2021/04/25 06:13:48;;;;;;;12.97;6.53;;;14.40;62.80;;;;;;4224434;27;20496;-70
2021/04/25 06:15:49;;;;;;;17.13;7.80;;;14.60;62.70;;;;;;4224665;27;20028;-74
2021/04/25 06:17:51;;;;;;;12.60;6.67;;;14.40;61.70;;;;;;4222661;28;20052;-69
2021/04/25 06:19:52;;;;;;;17.17;6.60;;;14.10;61.90;;;;;;4223935;28;20559;-69
2021/04/25 06:21:53;;;;;;;16.67;6.93;;;13.60;62.40;;;;;;4223291;28;20020;-67
2021/04/25 06:23:55;;;;;;;20.17;6.97;;;13.60;63.20;;;;;;4223158;28;20047;-68
2021/04/25 06:25:56;;;;;;;18.13;6.97;;;13.80;62.90;;;;;;4222873;28;20043;-71
2021/04/25 06:27:57;;;;;;;17.63;7.00;;;14.60;62.30;;;;;;4222683;28;20516;-67
2021/04/25 06:29:58;;;;;;;12.90;7.07;;;15.10;61.50;;;;;;4224457;27;20036;-62
2021/04/25 06:31:59;;;;;;;19.57;7.20;;;14.90;61.10;;;;;;4223231;28;20100;-80
2021/04/25 06:34:01;;;;;;;12.53;6.50;;;14.40;61.20;;;;;;4223558;28;20040;-61
2021/04/25 06:36:03;;;;;;;16.07;6.43;;;14.00;62.30;;;;;;4222897;28;20368;-61
2021/04/25 06:38:04;;;;;;;18.97;7.73;;;13.50;62.90;;;;;;4223976;28;20092;-63
2021/04/25 06:40:07;;;;;;;11.33;5.60;;;13.30;64.20;;;;;;4222549;28;20168;-68
2021/04/25 06:42:08;;;;;;;10.97;6.40;;;13.30;64.10;;;;;;4224738;27;20030;-68
2021/04/25 06:44:09;;;;;;;10.70;6.90;;;13.30;64.80;;;;;;4222660;28;20043;-63
2021/04/25 06:46:10;;;;;;;14.67;7.07;;;13.30;66.00;;;;;;4223386;28;20043;-62
2021/04/25 06:48:11;;;;;;;15.50;6.27;;;13.20;66.60;;;;;;4222362;27;20027;-76
2021/04/25 06:50:13;;;;;;;10.50;6.67;;;13.20;66.70;;;;;;4222851;28;20044;-81
2021/04/25 06:52:15;;;;;;;7.07;4.90;;;13.10;66.50;;;;;;4221815;28;20495;-78
2021/04/25 06:54:16;;;;;;;9.43;4.87;;;13.10;66.20;;;;;;4222409;28;20061;-65
2021/04/25 06:56:17;;;;;;;8.80;5.30;;;13.40;65.60;;;;;;4222048;28;20039;-66
2021/04/25 06:58:18;;;;;;;10.40;5.40;;;13.50;63.60;;;;;;4221268;28;20036;-71
2021/04/25 07:00:22;;;;;;;9.17;5.10;;;13.40;63.80;;;;;;4223111;28;20127;-73
2021/04/25 07:02:24;;;;;;;8.77;4.27;;;13.30;63.30;;;;;;4222689;28;20382;-71
2021/04/25 07:04:25;;;;;;;10.63;3.67;;;13.10;63.20;;;;;;4222991;28;20035;-72
2021/04/25 07:06:26;;;;;;;6.60;4.10;;;12.90;62.70;;;;;;4222425;28;20031;-78
2021/04/25 07:08:28;;;;;;;9.97;4.60;;;12.80;62.50;;;;;;4223784;28;20040;-73
2021/04/25 07:10:29;;;;;;;8.33;4.50;;;13.00;62.20;;;;;;4222461;28;20422;-69
2021/04/25 07:12:30;;;;;;;7.07;4.40;;;13.00;61.90;;;;;;4223336;28;20035;-77
2021/04/25 07:14:31;;;;;;;8.60;4.27;;;13.40;62.00;;;;;;4220969;28;20076;-71
2021/04/25 07:16:32;;;;;;;9.47;4.70;;;13.60;61.00;;;;;;4229814;27;20443;-73
2021/04/25 07:18:33;;;;;;;7.93;4.23;;;13.50;60.80;;;;;;4239339;27;20027;-69
2021/04/25 07:20:35;;;;;;;8.67;4.03;;;13.40;60.70;;;;;;4231652;27;20031;-72
2021/04/25 07:22:36;;;;;;;7.37;5.00;;;13.30;61.00;;;;;;4222865;28;20083;-67
2021/04/25 07:24:38;;;;;;;11.60;4.90;;;13.10;61.40;;;;;;4222652;28;20812;-75
2021/04/25 07:26:39;;;;;;;11.63;5.03;;;13.20;62.40;;;;;;4222565;28;20035;-68
2021/04/25 07:28:40;;;;;;;8.13;4.20;;;13.30;61.60;;;;;;4222493;28;20043;-66
2021/04/25 07:30:41;;;;;;;8.93;5.03;;;13.40;61.40;;;;;;4222601;28;20036;-71
2021/04/25 07:32:43;;;;;;;8.20;4.43;;;13.50;61.20;;;;;;4222106;28;20092;-69
2021/04/25 07:34:45;;;;;;;7.80;4.77;;;13.60;61.40;;;;;;4221326;28;20035;-71
2021/04/25 07:36:46;;;;;;;8.47;5.10;;;13.50;61.60;;;;;;4222073;28;20085;-67
2021/04/25 07:38:47;;;;;;;8.60;4.10;;;13.70;61.50;;;;;;4224484;27;20039;-66
2021/04/25 07:40:49;;;;;;;9.17;4.70;;;14.10;61.10;;;;;;4221687;28;20425;-72
2021/04/25 07:42:50;;;;;;;9.23;5.27;;;14.00;60.70;;;;;;4224303;27;20162;-64
2021/04/25 07:44:52;;;;;;;9.07;5.17;;;13.80;61.30;;;;;;4221099;28;20077;-73
2021/04/25 07:46:54;;;;;;;9.67;4.40;;;13.90;61.50;;;;;;4223236;28;20103;-77
2021/04/25 07:48:55;;;;;;;8.87;4.83;;;13.90;61.60;;;;;;4221496;28;20031;-65
2021/04/25 07:50:56;;;;;;;12.23;4.50;;;13.80;62.00;;;;;;4223245;28;20171;-77
2021/04/25 07:52:58;;;;;;;7.53;4.67;;;13.80;62.20;;;;;;4221849;28;20497;-77
2021/04/25 07:54:59;;;;;;;8.13;4.30;;;13.90;62.00;;;;;;4220331;28;20043;-67
2021/04/25 07:57:00;;;;;;;10.70;5.13;;;14.20;62.00;;;;;;4222232;27;20085;-66
2021/04/25 07:59:02;;;;;;;9.53;5.00;;;14.30;61.30;;;;;;4222308;28;20032;-76
2021/04/25 08:01:03;;;;;;;7.50;4.27;;;14.30;61.30;;;;;;4222158;28;20031;-72
2021/04/25 08:03:05;;;;;;;9.80;4.70;;;14.40;61.30;;;;;;4222183;28;20039;-64
2021/04/25 08:05:08;;;;;;;6.93;3.80;;;14.10;61.50;;;;;;4222485;28;20092;-68
2021/04/25 08:07:09;;;;;;;10.33;3.90;;;13.90;62.20;;;;;;4221956;28;20430;-70
2021/04/25 08:09:11;;;;;;;9.67;4.33;;;13.80;62.00;;;;;;4222781;28;20023;-66
2021/04/25 08:11:13;;;;;;;11.23;3.80;;;13.80;62.20;;;;;;4222138;28;20425;-64
2021/04/25 08:13:14;;;;;;;8.33;4.13;;;13.80;62.00;;;;;;4222841;28;20031;-67
2021/04/25 08:15:15;;;;;;;7.53;4.03;;;14.10;61.90;;;;;;4221804;28;20024;-66
2021/04/25 08:17:17;;;;;;;7.30;3.57;;;14.20;61.20;;;;;;4222708;28;20023;-64
2021/04/25 08:19:18;;;;;;;7.23;3.83;;;14.40;60.90;;;;;;4221602;28;20479;-65
2021/04/25 08:21:19;;;;;;;6.77;3.73;;;14.60;60.20;;;;;;4221975;27;20473;-64
2021/04/25 08:23:20;;;;;;;7.43;3.50;;;14.80;59.90;;;;;;4221426;28;20080;-66
2021/04/25 08:25:21;;;;;;;9.17;3.80;;;14.90;59.10;;;;;;4221690;28;20035;-67
2021/04/25 08:27:22;;;;;;;7.57;3.70;;;15.10;58.60;;;;;;4222332;28;20081;-63
2021/04/25 08:29:24;;;;;;;7.17;3.57;;;15.00;58.80;;;;;;4222575;28;20035;-69
2021/04/25 08:31:25;;;;;;;9.03;3.13;;;15.00;58.40;;;;;;4223430;27;20108;-68
2021/04/25 08:33:26;;;;;;;5.93;2.73;;;15.00;58.00;;;;;;4223017;27;20032;-65
2021/04/25 08:35:27;;;;;;;9.07;3.60;;;15.00;57.30;;;;;;4222338;28;20088;-65
2021/04/25 08:37:29;;;;;;;5.77;3.43;;;15.20;57.30;;;;;;4221508;28;20088;-68
2021/04/25 08:39:30;;;;;;;9.30;3.43;;;15.50;57.30;;;;;;4223319;28;20476;-66
2021/04/25 08:41:31;;;;;;;8.27;3.77;;;15.80;57.20;;;;;;4221534;28;20065;-63
2021/04/25 08:43:32;;;;;;;6.47;3.33;;;15.90;56.60;;;;;;4221451;28;20105;-63
2021/04/25 08:45:34;;;;;;;5.90;3.60;;;15.60;56.40;;;;;;4221028;28;20085;-63
2021/04/25 08:47:54;;;;;;;8.10;3.90;;;15.30;56.20;;;;;;4223361;28;20027;-64
2021/04/25 08:50:01;;;;;;;5.68;3.20;;;15.20;55.80;;;;;;4221094;28;20495;-65
2021/04/25 08:52:02;;;;;;;7.40;3.10;;;15.40;56.30;;;;;;4222178;28;20444;-63
2021/04/25 08:54:04;;;;;;;7.23;3.20;;;15.70;56.20;;;;;;4221112;28;20120;-65
2021/04/25 08:56:05;;;;;;;10.27;3.80;;;15.90;55.40;;;;;;4220863;28;20043;-66
2021/04/25 08:58:06;;;;;;;4.43;3.03;;;15.80;54.90;;;;;;4220566;28;20031;-62
2021/04/25 09:00:09;;;;;;;6.20;3.83;;;15.60;54.70;;;;;;4225297;28;20076;-64
2021/04/25 09:02:10;;;;;;;4.17;3.17;;;15.20;54.60;;;;;;4237428;27;20088;-63
2021/04/25 09:04:11;;;;;;;7.30;3.07;;;15.20;55.00;;;;;;4239069;28;20084;-67
2021/04/25 09:06:12;;;;;;;7.73;4.00;;;15.30;54.80;;;;;;4238437;27;20072;-65
2021/04/25 09:08:13;;;;;;;7.00;4.23;;;15.30;55.00;;;;;;4237963;28;20155;-64
2021/04/25 09:10:15;;;;;;;9.43;3.90;;;15.30;55.00;;;;;;4238694;28;20019;-65
2021/04/25 09:12:44;;;;;;;10.23;3.60;;;15.50;55.30;;;;;;4238042;28;20035;-64
2021/04/25 09:14:45;;;;;;;5.13;3.67;;;15.70;54.30;;;;;;4238389;28;20039;-66
2021/04/25 09:17:07;;;;;;;10.07;4.10;;;15.80;54.50;;;;;;4238614;27;20039;-67
2021/04/25 09:19:08;;;;;;;5.23;3.47;;;16.10;53.30;;;;;;4221925;28;20050;-64
2021/04/25 09:21:11;;;;;;;6.67;4.40;;;15.90;53.60;;;;;;4221651;28;20027;-67
2021/04/25 09:23:20;;;;;;;10.07;4.23;;;15.60;53.90;;;;;;4221935;28;20536;-69
2021/04/25 09:25:21;;;;;;;6.07;3.77;;;15.50;54.10;;;;;;4221089;28;20060;-66
2021/04/25 09:27:26;;;;;;;9.00;3.37;;;15.40;54.00;;;;;;4221857;28;20036;-65
2021/04/25 09:29:50;;;;;;;6.30;3.80;;;15.30;53.90;;;;;;4220614;28;20015;-64
2021/04/25 09:31:54;;;;;;;5.90;3.40;;;15.30;53.10;;;;;;4221836;28;20036;-62
2021/04/25 09:33:57;;;;;;;8.87;4.30;;;15.30;54.00;;;;;;4219599;28;20494;-66
2021/04/25 09:36:00;;;;;;;7.70;3.43;;;15.30;54.10;;;;;;4221512;28;20082;-67
2021/04/25 09:38:12;;;;;;;8.37;3.33;;;15.30;54.40;;;;;;4222168;28;20078;-63
2021/04/25 09:40:26;;;;;;;5.40;3.13;;;15.50;53.90;;;;;;4225333;28;20635;-65
2021/04/25 09:42:27;;;;;;;7.50;3.40;;;15.80;54.20;;;;;;4223793;28;20487;-67
2021/04/25 09:44:34;;;;;;;8.07;4.00;;;16.10;53.70;;;;;;4224868;28;20039;-65
2021/04/25 09:46:56;;;;;;;8.27;3.17;;;16.40;53.30;;;;;;4223879;28;20076;-65
2021/04/25 09:49:00;;;;;;;5.80;3.43;;;16.20;51.30;;;;;;4224635;28;20028;-63
2021/04/25 09:51:41;;;;;;;5.83;3.20;;;16.00;52.40;;;;;;4222904;27;20051;-63
2021/04/25 09:53:54;;;;;;;8.82;3.67;;;15.90;52.40;;;;;;4202256;28;20448;-67
2021/04/25 09:55:56;;;;;;;4.88;3.45;;;15.80;52.40;;;;;;4223312;28;20031;-67
2021/04/25 09:58:07;;;;;;;6.00;3.20;;;15.80;53.20;;;;;;4224632;27;20104;-65
2021/04/25 10:00:09;;;;;;;7.72;3.65;;;16.00;53.30;;;;;;4224275;28;20069;-68
2021/04/25 10:02:10;;;;;;;5.05;3.03;;;15.80;52.50;;;;;;4224298;28;20429;-67
2021/04/25 10:04:37;;;;;;;9.17;3.57;;;15.60;52.90;;;;;;4223664;28;20035;-65
2021/04/25 10:06:49;;;;;;;6.03;3.00;;;15.60;52.00;;;;;;4223914;28;20084;-66
2021/04/25 10:08:52;;;;;;;8.87;3.40;;;15.70;52.20;;;;;;4225301;27;20039;-64
2021/04/25 10:10:53;;;;;;;6.17;3.50;;;15.90;52.80;;;;;;4224549;28;20061;-64
2021/04/25 10:12:55;;;;;;;7.93;4.00;;;15.80;52.50;;;;;;4223403;28;20073;-64
2021/04/25 10:14:57;;;;;;;7.23;3.30;;;15.60;52.90;;;;;;4223191;28;20043;-63
2021/04/25 10:17:00;;;;;;;6.53;3.23;;;15.50;53.50;;;;;;4223562;27;20092;-68
2021/04/25 10:19:01;;;;;;;6.37;3.30;;;15.50;53.30;;;;;;4240896;27;20126;-69
2021/04/25 10:21:03;;;;;;;7.23;3.33;;;15.60;53.40;;;;;;4238660;27;20035;-64
2021/04/25 10:23:06;;;;;;;4.80;3.40;;;15.70;53.30;;;;;;4240731;27;20095;-61
2021/04/25 10:25:10;;;;;;;6.73;3.60;;;15.80;52.80;;;;;;4240161;27;20035;-63
2021/04/25 10:27:13;;;;;;;5.47;3.40;;;15.50;52.70;;;;;;4241348;27;20552;-63
2021/04/25 10:29:16;;;;;;;7.87;3.77;;;15.50;53.00;;;;;;4240152;27;20203;-66
2021/04/25 10:31:33;;;;;;;5.50;3.00;;;15.40;52.80;;;;;;4241212;27;20035;-64
2021/04/25 10:34:04;;;;;;;7.93;3.70;;;15.50;52.90;;;;;;4240359;27;20083;-63
2021/04/25 10:36:06;;;;;;;9.17;3.30;;;15.70;53.30;;;;;;4239799;27;20063;-65